sensor_id;sensor_type;location;lat;lon;timestamp;temperature;humidity
56322;DHT22;42227;6.376;-10.782;2024-02-04T00:01:11;29.30;1.00
56322;DHT22;42227;6.376;-10.782;2024-02-04T00:03:39;29.10;1.00
56322;DHT22;42227;6.376;-10.782;2024-02-04T00:06:08;29.00;1.00
56322;DHT22;42227;6.376;-10.782;2024-02-04T00:08:36;29.00;1.00
56322;DHT22;42227;6.376;-10.782;2024-02-04T00:11:04;29.00;57.30
56322;DHT22;42227;6.376;-10.782;2024-02-04T00:13:33;29.20;15.90
56322;DHT22;42227;6.376;-10.782;2024-02-04T00:16:01;29.30;1.00
56322;DHT22;42227;6.376;-10.782;2024-02-04T00:18:30;29.30;1.00
56322;DHT22;42227;6.376;-10.782;2024-02-04T00:20:58;29.30;1.00
56322;DHT22;42227;6.376;-10.782;2024-02-04T00:23:27;29.40;1.00
56322;DHT22;42227;6.376;-10.782;2024-02-04T00:25:55;29.40;1.00
56322;DHT22;42227;6.376;-10.782;2024-02-04T00:28:23;29.30;1.00
56322;DHT22;42227;6.376;-10.782;2024-02-04T00:30:52;29.10;1.00
56322;DHT22;42227;6.376;-10.782;2024-02-04T00:33:22;29.10;1.00
56322;DHT22;42227;6.376;-10.782;2024-02-04T00:35:50;29.00;1.00
56322;DHT22;42227;6.376;-10.782;2024-02-04T00:38:19;29.00;1.00
56322;DHT22;42227;6.376;-10.782;2024-02-04T00:40:47;29.20;1.00
56322;DHT22;42227;6.376;-10.782;2024-02-04T00:43:16;29.30;1.00
56322;DHT22;42227;6.376;-10.782;2024-02-04T00:45:44;29.30;1.00
56322;DHT22;42227;6.376;-10.782;2024-02-04T00:48:13;29.30;1.00
56322;DHT22;42227;6.376;-10.782;2024-02-04T00:50:42;29.30;1.00
56322;DHT22;42227;6.376;-10.782;2024-02-04T00:53:10;29.30;1.00
56322;DHT22;42227;6.376;-10.782;2024-02-04T00:55:39;29.40;1.00
56322;DHT22;42227;6.376;-10.782;2024-02-04T00:58:07;29.30;1.00
56322;DHT22;42227;6.376;-10.782;2024-02-04T01:00:36;29.20;1.00
56322;DHT22;42227;6.376;-10.782;2024-02-04T01:03:04;29.10;1.00
56322;DHT22;42227;6.376;-10.782;2024-02-04T01:05:33;29.00;1.00
56322;DHT22;42227;6.376;-10.782;2024-02-04T01:08:01;29.10;1.00
56322;DHT22;42227;6.376;-10.782;2024-02-04T01:10:30;29.10;1.00
56322;DHT22;42227;6.376;-10.782;2024-02-04T01:12:58;29.30;1.00
56322;DHT22;42227;6.376;-10.782;2024-02-04T01:15:27;29.30;1.00
56322;DHT22;42227;6.376;-10.782;2024-02-04T01:17:55;29.30;1.00
56322;DHT22;42227;6.376;-10.782;2024-02-04T01:20:23;29.30;1.00
56322;DHT22;42227;6.376;-10.782;2024-02-04T01:22:52;29.20;1.00
56322;DHT22;42227;6.376;-10.782;2024-02-04T01:25:21;29.10;1.00
56322;DHT22;42227;6.376;-10.782;2024-02-04T01:27:49;29.10;1.00
56322;DHT22;42227;6.376;-10.782;2024-02-04T01:30:18;29.00;1.00
56322;DHT22;42227;6.376;-10.782;2024-02-04T01:32:46;29.00;1.00
56322;DHT22;42227;6.376;-10.782;2024-02-04T01:35:15;29.10;1.00
56322;DHT22;42227;6.376;-10.782;2024-02-04T01:37:44;29.20;1.00
56322;DHT22;42227;6.376;-10.782;2024-02-04T01:40:12;29.30;1.00
56322;DHT22;42227;6.376;-10.782;2024-02-04T01:42:41;29.40;1.00
56322;DHT22;42227;6.376;-10.782;2024-02-04T01:45:09;29.40;1.00
56322;DHT22;42227;6.376;-10.782;2024-02-04T01:47:38;29.40;1.00
56322;DHT22;42227;6.376;-10.782;2024-02-04T01:50:07;29.30;1.00
56322;DHT22;42227;6.376;-10.782;2024-02-04T01:52:37;29.20;1.00
56322;DHT22;42227;6.376;-10.782;2024-02-04T01:55:07;29.00;1.00
56322;DHT22;42227;6.376;-10.782;2024-02-04T01:57:36;29.00;1.00
56322;DHT22;42227;6.376;-10.782;2024-02-04T02:00:07;28.90;1.00
56322;DHT22;42227;6.376;-10.782;2024-02-04T02:02:41;29.00;1.00
56322;DHT22;42227;6.376;-10.782;2024-02-04T02:05:11;29.10;1.00
56322;DHT22;42227;6.376;-10.782;2024-02-04T02:07:40;29.20;1.00
56322;DHT22;42227;6.376;-10.782;2024-02-04T02:10:09;29.20;1.00
56322;DHT22;42227;6.376;-10.782;2024-02-04T02:15:26;29.10;1.00
56322;DHT22;42227;6.376;-10.782;2024-02-04T02:23:35;29.00;1.00
56322;DHT22;42227;6.376;-10.782;2024-02-04T02:26:05;28.80;1.00
56322;DHT22;42227;6.376;-10.782;2024-02-04T02:28:34;28.80;1.00
56322;DHT22;42227;6.376;-10.782;2024-02-04T02:31:02;28.90;1.00
56322;DHT22;42227;6.376;-10.782;2024-02-04T02:33:34;28.90;1.00
56322;DHT22;42227;6.376;-10.782;2024-02-04T02:36:08;29.10;1.00
56322;DHT22;42227;6.376;-10.782;2024-02-04T02:38:56;29.10;1.00
56322;DHT22;42227;6.376;-10.782;2024-02-04T02:41:30;29.00;1.00
56322;DHT22;42227;6.376;-10.782;2024-02-04T02:44:00;29.00;1.00
56322;DHT22;42227;6.376;-10.782;2024-02-04T02:46:29;28.90;1.00
56322;DHT22;42227;6.376;-10.782;2024-02-04T02:48:58;28.60;1.00
56322;DHT22;42227;6.376;-10.782;2024-02-04T02:51:27;28.50;1.00
56322;DHT22;42227;6.376;-10.782;2024-02-04T02:53:55;28.40;1.00
56322;DHT22;42227;6.376;-10.782;2024-02-04T02:56:24;28.20;48.10
56322;DHT22;42227;6.376;-10.782;2024-02-04T02:58:53;28.20;96.50
56322;DHT22;42227;6.376;-10.782;2024-02-04T03:01:21;28.30;64.80
56322;DHT22;42227;6.376;-10.782;2024-02-04T03:03:50;28.20;72.00
56322;DHT22;42227;6.376;-10.782;2024-02-04T03:06:21;28.20;54.10
56322;DHT22;42227;6.376;-10.782;2024-02-04T03:08:49;28.20;41.20
56322;DHT22;42227;6.376;-10.782;2024-02-04T03:11:18;28.20;9.20
56322;DHT22;42227;6.376;-10.782;2024-02-04T03:13:46;28.10;29.30
56322;DHT22;42227;6.376;-10.782;2024-02-04T03:16:15;28.00;49.70
56322;DHT22;42227;6.376;-10.782;2024-02-04T03:18:45;27.90;67.30
56322;DHT22;42227;6.376;-10.782;2024-02-04T03:21:15;27.90;99.90
56322;DHT22;42227;6.376;-10.782;2024-02-04T03:23:44;28.00;99.90
56322;DHT22;42227;6.376;-10.782;2024-02-04T03:26:17;28.00;96.50
56322;DHT22;42227;6.376;-10.782;2024-02-04T03:28:46;27.90;85.90
56322;DHT22;42227;6.376;-10.782;2024-02-04T03:31:21;28.00;57.00
56322;DHT22;42227;6.376;-10.782;2024-02-04T03:33:51;28.00;22.90
56322;DHT22;42227;6.376;-10.782;2024-02-04T03:36:22;28.00;1.00
56322;DHT22;42227;6.376;-10.782;2024-02-04T03:38:51;27.90;1.00
56322;DHT22;42227;6.376;-10.782;2024-02-04T03:41:20;27.70;64.00
56322;DHT22;42227;6.376;-10.782;2024-02-04T03:43:48;27.60;94.40
56322;DHT22;42227;6.376;-10.782;2024-02-04T03:46:17;27.60;99.90
56322;DHT22;42227;6.376;-10.782;2024-02-04T03:48:45;27.70;99.90
56322;DHT22;42227;6.376;-10.782;2024-02-04T03:51:18;27.80;99.90
56322;DHT22;42227;6.376;-10.782;2024-02-04T03:53:50;27.80;74.00
56322;DHT22;42227;6.376;-10.782;2024-02-04T03:56:18;27.90;81.20
56322;DHT22;42227;6.376;-10.782;2024-02-04T03:58:47;27.80;26.90
56322;DHT22;42227;6.376;-10.782;2024-02-04T04:01:15;27.70;8.00
56322;DHT22;42227;6.376;-10.782;2024-02-04T04:03:44;27.70;36.80
56322;DHT22;42227;6.376;-10.782;2024-02-04T04:06:13;27.40;99.90
56322;DHT22;42227;6.376;-10.782;2024-02-04T04:08:42;27.50;99.90
56322;DHT22;42227;6.376;-10.782;2024-02-04T04:11:10;27.50;99.90
56322;DHT22;42227;6.376;-10.782;2024-02-04T04:13:39;27.70;99.90
56322;DHT22;42227;6.376;-10.782;2024-02-04T04:16:07;27.70;80.80
56322;DHT22;42227;6.376;-10.782;2024-02-04T04:18:35;27.70;53.30
56322;DHT22;42227;6.376;-10.782;2024-02-04T04:21:04;27.70;56.50
56322;DHT22;42227;6.376;-10.782;2024-02-04T04:23:33;27.60;22.10
56322;DHT22;42227;6.376;-10.782;2024-02-04T04:26:01;27.50;63.00
56322;DHT22;42227;6.376;-10.782;2024-02-04T04:28:29;27.50;91.60
56322;DHT22;42227;6.376;-10.782;2024-02-04T04:30:58;27.50;99.90
56322;DHT22;42227;6.376;-10.782;2024-02-04T04:33:26;27.40;99.90
56322;DHT22;42227;6.376;-10.782;2024-02-04T04:35:55;27.50;99.90
56322;DHT22;42227;6.376;-10.782;2024-02-04T04:38:23;27.50;99.90
56322;DHT22;42227;6.376;-10.782;2024-02-04T04:40:52;27.60;99.90
56322;DHT22;42227;6.376;-10.782;2024-02-04T04:43:20;27.60;99.90
56322;DHT22;42227;6.376;-10.782;2024-02-04T04:45:49;27.60;99.90
56322;DHT22;42227;6.376;-10.782;2024-02-04T04:48:17;27.50;99.90
56322;DHT22;42227;6.376;-10.782;2024-02-04T04:50:46;27.40;99.90
56322;DHT22;42227;6.376;-10.782;2024-02-04T04:53:14;27.40;99.90
56322;DHT22;42227;6.376;-10.782;2024-02-04T04:55:42;27.30;99.90
56322;DHT22;42227;6.376;-10.782;2024-02-04T04:58:11;27.50;99.90
56322;DHT22;42227;6.376;-10.782;2024-02-04T05:00:39;27.50;99.90
56322;DHT22;42227;6.376;-10.782;2024-02-04T05:03:07;27.50;99.90
56322;DHT22;42227;6.376;-10.782;2024-02-04T05:05:36;27.60;99.90
56322;DHT22;42227;6.376;-10.782;2024-02-04T05:08:04;27.60;99.90
56322;DHT22;42227;6.376;-10.782;2024-02-04T05:10:33;27.60;99.90
56322;DHT22;42227;6.376;-10.782;2024-02-04T05:13:01;27.50;99.90
56322;DHT22;42227;6.376;-10.782;2024-02-04T05:15:30;27.50;99.90
56322;DHT22;42227;6.376;-10.782;2024-02-04T05:17:58;27.40;99.90
56322;DHT22;42227;6.376;-10.782;2024-02-04T05:20:27;27.40;99.90
56322;DHT22;42227;6.376;-10.782;2024-02-04T05:22:55;27.40;99.90
56322;DHT22;42227;6.376;-10.782;2024-02-04T05:25:24;27.50;99.90
56322;DHT22;42227;6.376;-10.782;2024-02-04T05:27:52;27.60;99.90
56322;DHT22;42227;6.376;-10.782;2024-02-04T05:30:21;27.50;99.90
56322;DHT22;42227;6.376;-10.782;2024-02-04T05:32:49;27.50;99.90
56322;DHT22;42227;6.376;-10.782;2024-02-04T05:35:18;27.40;99.90
56322;DHT22;42227;6.376;-10.782;2024-02-04T05:37:46;27.40;99.90
56322;DHT22;42227;6.376;-10.782;2024-02-04T05:40:15;27.20;99.90
56322;DHT22;42227;6.376;-10.782;2024-02-04T05:42:43;27.20;99.90
56322;DHT22;42227;6.376;-10.782;2024-02-04T05:45:12;27.30;99.90
56322;DHT22;42227;6.376;-10.782;2024-02-04T05:47:40;27.40;99.90
56322;DHT22;42227;6.376;-10.782;2024-02-04T05:50:09;27.40;99.90
56322;DHT22;42227;6.376;-10.782;2024-02-04T05:52:38;27.40;99.90
56322;DHT22;42227;6.376;-10.782;2024-02-04T05:55:06;27.40;99.90
56322;DHT22;42227;6.376;-10.782;2024-02-04T05:57:35;27.20;99.90
56322;DHT22;42227;6.376;-10.782;2024-02-04T06:00:04;27.10;99.90
56322;DHT22;42227;6.376;-10.782;2024-02-04T06:02:35;27.20;99.90
56322;DHT22;42227;6.376;-10.782;2024-02-04T06:05:05;27.10;99.90
56322;DHT22;42227;6.376;-10.782;2024-02-04T06:07:34;27.20;99.90
56322;DHT22;42227;6.376;-10.782;2024-02-04T06:10:02;27.20;99.90
56322;DHT22;42227;6.376;-10.782;2024-02-04T06:12:31;27.20;99.90
56322;DHT22;42227;6.376;-10.782;2024-02-04T06:15:00;27.30;99.90
56322;DHT22;42227;6.376;-10.782;2024-02-04T06:17:28;27.20;99.90
56322;DHT22;42227;6.376;-10.782;2024-02-04T06:19:57;27.20;99.90
56322;DHT22;42227;6.376;-10.782;2024-02-04T06:22:25;27.10;99.90
56322;DHT22;42227;6.376;-10.782;2024-02-04T06:24:54;27.00;99.90
56322;DHT22;42227;6.376;-10.782;2024-02-04T06:27:22;27.20;99.90
56322;DHT22;42227;6.376;-10.782;2024-02-04T06:29:51;27.30;99.90
56322;DHT22;42227;6.376;-10.782;2024-02-04T06:32:19;27.30;99.90
56322;DHT22;42227;6.376;-10.782;2024-02-04T06:34:48;27.30;99.90
56322;DHT22;42227;6.376;-10.782;2024-02-04T06:37:17;27.40;91.20
56322;DHT22;42227;6.376;-10.782;2024-02-04T06:39:45;27.30;86.70
56322;DHT22;42227;6.376;-10.782;2024-02-04T06:42:13;27.20;95.80
56322;DHT22;42227;6.376;-10.782;2024-02-04T06:44:45;27.20;99.90
56322;DHT22;42227;6.376;-10.782;2024-02-04T06:47:13;27.10;99.90
56322;DHT22;42227;6.376;-10.782;2024-02-04T06:49:45;27.00;99.90
56322;DHT22;42227;6.376;-10.782;2024-02-04T06:52:14;27.00;99.90
56322;DHT22;42227;6.376;-10.782;2024-02-04T06:54:42;27.10;99.90
56322;DHT22;42227;6.376;-10.782;2024-02-04T06:57:10;27.20;99.90
56322;DHT22;42227;6.376;-10.782;2024-02-04T06:59:39;27.20;97.60
56322;DHT22;42227;6.376;-10.782;2024-02-04T07:02:07;27.20;99.60
56322;DHT22;42227;6.376;-10.782;2024-02-04T07:04:36;27.10;99.90
56322;DHT22;42227;6.376;-10.782;2024-02-04T07:07:05;26.90;99.90
56322;DHT22;42227;6.376;-10.782;2024-02-04T07:09:33;26.80;99.90
56322;DHT22;42227;6.376;-10.782;2024-02-04T07:12:01;26.80;99.90
56322;DHT22;42227;6.376;-10.782;2024-02-04T07:14:30;27.00;99.90
56322;DHT22;42227;6.376;-10.782;2024-02-04T07:16:58;27.10;99.90
56322;DHT22;42227;6.376;-10.782;2024-02-04T07:19:27;27.20;99.90
56322;DHT22;42227;6.376;-10.782;2024-02-04T07:21:55;27.20;99.90
56322;DHT22;42227;6.376;-10.782;2024-02-04T07:24:24;27.20;94.60
56322;DHT22;42227;6.376;-10.782;2024-02-04T07:26:52;27.10;99.90
56322;DHT22;42227;6.376;-10.782;2024-02-04T07:29:21;27.10;99.90
56322;DHT22;42227;6.376;-10.782;2024-02-04T07:31:49;27.10;99.90
56322;DHT22;42227;6.376;-10.782;2024-02-04T07:34:18;27.20;99.90
56322;DHT22;42227;6.376;-10.782;2024-02-04T07:36:46;27.20;99.90
56322;DHT22;42227;6.376;-10.782;2024-02-04T07:39:15;27.30;96.10
56322;DHT22;42227;6.376;-10.782;2024-02-04T07:41:43;27.50;49.90
56322;DHT22;42227;6.376;-10.782;2024-02-04T07:44:11;27.40;1.00
56322;DHT22;42227;6.376;-10.782;2024-02-04T07:46:40;27.60;11.40
56322;DHT22;42227;6.376;-10.782;2024-02-04T07:49:08;27.60;1.00
56322;DHT22;42227;6.376;-10.782;2024-02-04T07:51:37;27.60;1.00
56322;DHT22;42227;6.376;-10.782;2024-02-04T07:54:05;27.60;1.00
56322;DHT22;42227;6.376;-10.782;2024-02-04T07:56:33;27.70;1.00
56322;DHT22;42227;6.376;-10.782;2024-02-04T07:59:02;27.70;1.00
56322;DHT22;42227;6.376;-10.782;2024-02-04T08:01:31;27.90;1.00
56322;DHT22;42227;6.376;-10.782;2024-02-04T08:03:59;27.90;1.00
56322;DHT22;42227;6.376;-10.782;2024-02-04T08:06:28;28.10;1.00
56322;DHT22;42227;6.376;-10.782;2024-02-04T08:08:57;28.20;1.00
56322;DHT22;42227;6.376;-10.782;2024-02-04T08:11:25;28.30;1.00
56322;DHT22;42227;6.376;-10.782;2024-02-04T08:13:54;28.50;99.90
56322;DHT22;42227;6.376;-10.782;2024-02-04T08:16:25;28.60;99.90
56322;DHT22;42227;6.376;-10.782;2024-02-04T08:18:53;28.70;99.90
56322;DHT22;42227;6.376;-10.782;2024-02-04T08:21:22;28.90;99.90
56322;DHT22;42227;6.376;-10.782;2024-02-04T08:23:50;29.00;99.90
56322;DHT22;42227;6.376;-10.782;2024-02-04T08:26:19;29.10;99.90
56322;DHT22;42227;6.376;-10.782;2024-02-04T08:28:48;29.40;99.90
56322;DHT22;42227;6.376;-10.782;2024-02-04T08:31:16;29.70;99.90
56322;DHT22;42227;6.376;-10.782;2024-02-04T08:33:45;29.90;99.90
56322;DHT22;42227;6.376;-10.782;2024-02-04T08:36:13;30.10;99.90
56322;DHT22;42227;6.376;-10.782;2024-02-04T08:38:43;30.20;99.90
56322;DHT22;42227;6.376;-10.782;2024-02-04T08:41:12;30.30;99.90
56322;DHT22;42227;6.376;-10.782;2024-02-04T08:43:40;30.50;99.90
56322;DHT22;42227;6.376;-10.782;2024-02-04T08:46:08;30.60;99.90
56322;DHT22;42227;6.376;-10.782;2024-02-04T08:48:41;30.70;99.90
56322;DHT22;42227;6.376;-10.782;2024-02-04T08:51:11;30.80;99.90
56322;DHT22;42227;6.376;-10.782;2024-02-04T08:53:40;31.10;99.90
56322;DHT22;42227;6.376;-10.782;2024-02-04T08:56:08;31.30;94.00
56322;DHT22;42227;6.376;-10.782;2024-02-04T08:58:37;31.30;89.80
56322;DHT22;42227;6.376;-10.782;2024-02-04T09:01:05;31.50;77.90
56322;DHT22;42227;6.376;-10.782;2024-02-04T09:03:34;31.50;74.90
56322;DHT22;42227;6.376;-10.782;2024-02-04T09:06:02;31.70;67.50
56322;DHT22;42227;6.376;-10.782;2024-02-04T09:08:31;31.80;60.70
56322;DHT22;42227;6.376;-10.782;2024-02-04T09:10:59;31.80;58.40
56322;DHT22;42227;6.376;-10.782;2024-02-04T09:13:29;31.80;60.00
56322;DHT22;42227;6.376;-10.782;2024-02-04T09:15:57;31.90;54.90
56322;DHT22;42227;6.376;-10.782;2024-02-04T09:18:25;31.80;55.70
56322;DHT22;42227;6.376;-10.782;2024-02-04T09:20:54;31.90;51.50
56322;DHT22;42227;6.376;-10.782;2024-02-04T09:23:23;32.00;49.60
56322;DHT22;42227;6.376;-10.782;2024-02-04T09:25:51;32.10;47.70
56322;DHT22;42227;6.376;-10.782;2024-02-04T09:28:20;32.20;47.60
56322;DHT22;42227;6.376;-10.782;2024-02-04T09:30:48;32.20;43.00
56322;DHT22;42227;6.376;-10.782;2024-02-04T09:33:17;32.20;49.50
56322;DHT22;42227;6.376;-10.782;2024-02-04T09:35:46;32.40;45.30
56322;DHT22;42227;6.376;-10.782;2024-02-04T09:38:15;32.40;51.60
56322;DHT22;42227;6.376;-10.782;2024-02-04T09:40:43;32.30;42.70
56322;DHT22;42227;6.376;-10.782;2024-02-04T09:43:13;32.20;49.10
56322;DHT22;42227;6.376;-10.782;2024-02-04T09:45:41;32.10;47.60
56322;DHT22;42227;6.376;-10.782;2024-02-04T09:48:11;32.20;51.10
56322;DHT22;42227;6.376;-10.782;2024-02-04T09:50:40;32.30;52.20
56322;DHT22;42227;6.376;-10.782;2024-02-04T09:53:09;32.40;43.70
56322;DHT22;42227;6.376;-10.782;2024-02-04T09:55:39;32.30;52.60
56322;DHT22;42227;6.376;-10.782;2024-02-04T09:58:09;32.10;56.00
56322;DHT22;42227;6.376;-10.782;2024-02-04T10:00:39;32.00;68.30
56322;DHT22;42227;6.376;-10.782;2024-02-04T10:03:07;32.10;64.50
56322;DHT22;42227;6.376;-10.782;2024-02-04T10:05:36;32.20;62.60
56322;DHT22;42227;6.376;-10.782;2024-02-04T10:08:05;32.10;59.90
56322;DHT22;42227;6.376;-10.782;2024-02-04T10:10:34;32.10;59.80
56322;DHT22;42227;6.376;-10.782;2024-02-04T10:13:09;32.20;59.40
56322;DHT22;42227;6.376;-10.782;2024-02-04T10:15:38;32.20;64.30
56322;DHT22;42227;6.376;-10.782;2024-02-04T10:18:07;32.30;62.90
56322;DHT22;42227;6.376;-10.782;2024-02-04T10:20:36;32.40;71.70
56322;DHT22;42227;6.376;-10.782;2024-02-04T10:23:04;32.40;67.60
56322;DHT22;42227;6.376;-10.782;2024-02-04T10:25:33;32.30;60.40
56322;DHT22;42227;6.376;-10.782;2024-02-04T10:28:02;32.40;51.50
56322;DHT22;42227;6.376;-10.782;2024-02-04T10:30:30;32.30;60.10
56322;DHT22;42227;6.376;-10.782;2024-02-04T10:32:59;32.30;67.60
56322;DHT22;42227;6.376;-10.782;2024-02-04T10:35:28;32.30;64.50
56322;DHT22;42227;6.376;-10.782;2024-02-04T10:37:57;32.20;82.50
56322;DHT22;42227;6.376;-10.782;2024-02-04T10:40:25;32.30;69.00
56322;DHT22;42227;6.376;-10.782;2024-02-04T10:43:00;32.50;81.70
56322;DHT22;42227;6.376;-10.782;2024-02-04T10:45:33;32.60;55.30
56322;DHT22;42227;6.376;-10.782;2024-02-04T10:48:03;32.50;59.30
56322;DHT22;42227;6.376;-10.782;2024-02-04T10:50:36;32.60;70.70
56322;DHT22;42227;6.376;-10.782;2024-02-04T10:53:06;32.60;59.00
56322;DHT22;42227;6.376;-10.782;2024-02-04T10:55:41;32.70;59.50
56322;DHT22;42227;6.376;-10.782;2024-02-04T10:58:11;32.60;33.80
56322;DHT22;42227;6.376;-10.782;2024-02-04T11:00:41;32.60;52.90
56322;DHT22;42227;6.376;-10.782;2024-02-04T11:03:11;32.70;35.70
56322;DHT22;42227;6.376;-10.782;2024-02-04T11:05:42;32.60;28.10
56322;DHT22;42227;6.376;-10.782;2024-02-04T11:08:12;32.40;42.60
56322;DHT22;42227;6.376;-10.782;2024-02-04T11:10:40;32.50;47.10
56322;DHT22;42227;6.376;-10.782;2024-02-04T11:13:10;32.40;44.20
56322;DHT22;42227;6.376;-10.782;2024-02-04T11:15:41;32.20;47.70
56322;DHT22;42227;6.376;-10.782;2024-02-04T11:18:54;32.40;47.90
56322;DHT22;42227;6.376;-10.782;2024-02-04T11:26:18;32.50;64.90
56322;DHT22;42227;6.376;-10.782;2024-02-04T11:28:47;32.40;59.40
56322;DHT22;42227;6.376;-10.782;2024-02-04T11:31:17;32.30;62.00
56322;DHT22;42227;6.376;-10.782;2024-02-04T11:33:47;32.30;58.50
56322;DHT22;42227;6.376;-10.782;2024-02-04T11:36:23;32.20;59.10
56322;DHT22;42227;6.376;-10.782;2024-02-04T11:38:52;32.20;44.00
56322;DHT22;42227;6.376;-10.782;2024-02-04T11:41:25;32.20;45.30
56322;DHT22;42227;6.376;-10.782;2024-02-04T11:43:55;32.30;53.70
56322;DHT22;42227;6.376;-10.782;2024-02-04T11:46:30;32.30;59.40
56322;DHT22;42227;6.376;-10.782;2024-02-04T11:49:00;32.30;67.00
56322;DHT22;42227;6.376;-10.782;2024-02-04T11:51:28;32.30;72.00
56322;DHT22;42227;6.376;-10.782;2024-02-04T11:53:57;32.40;72.20
56322;DHT22;42227;6.376;-10.782;2024-02-04T11:56:25;32.30;52.40
56322;DHT22;42227;6.376;-10.782;2024-02-04T11:58:54;32.30;61.70
56322;DHT22;42227;6.376;-10.782;2024-02-04T12:01:23;32.30;75.40
56322;DHT22;42227;6.376;-10.782;2024-02-04T12:03:52;32.50;62.10
56322;DHT22;42227;6.376;-10.782;2024-02-04T12:06:21;32.60;48.50
56322;DHT22;42227;6.376;-10.782;2024-02-04T12:08:49;32.50;51.10
56322;DHT22;42227;6.376;-10.782;2024-02-04T12:11:18;32.30;52.80
56322;DHT22;42227;6.376;-10.782;2024-02-04T12:13:47;32.20;61.80
56322;DHT22;42227;6.376;-10.782;2024-02-04T12:16:18;32.30;70.80
56322;DHT22;42227;6.376;-10.782;2024-02-04T12:18:51;32.40;80.00
56322;DHT22;42227;6.376;-10.782;2024-02-04T12:21:20;32.50;75.60
56322;DHT22;42227;6.376;-10.782;2024-02-04T12:23:48;32.30;61.00
56322;DHT22;42227;6.376;-10.782;2024-02-04T12:26:17;32.30;58.50
56322;DHT22;42227;6.376;-10.782;2024-02-04T12:28:45;32.30;59.80
56322;DHT22;42227;6.376;-10.782;2024-02-04T12:31:17;32.30;59.10
56322;DHT22;42227;6.376;-10.782;2024-02-04T12:33:53;32.30;48.90
56322;DHT22;42227;6.376;-10.782;2024-02-04T12:36:23;32.20;49.40
56322;DHT22;42227;6.376;-10.782;2024-02-04T12:38:59;32.20;61.70
56322;DHT22;42227;6.376;-10.782;2024-02-04T12:41:28;32.20;58.40
56322;DHT22;42227;6.376;-10.782;2024-02-04T12:43:58;32.40;58.80
56322;DHT22;42227;6.376;-10.782;2024-02-04T12:46:27;32.30;61.40
56322;DHT22;42227;6.376;-10.782;2024-02-04T12:48:57;32.30;61.00
56322;DHT22;42227;6.376;-10.782;2024-02-04T12:51:33;32.20;57.70
56322;DHT22;42227;6.376;-10.782;2024-02-04T12:54:09;32.00;38.10
56322;DHT22;42227;6.376;-10.782;2024-02-04T12:56:51;32.20;73.40
56322;DHT22;42227;6.376;-10.782;2024-02-04T12:59:33;32.40;84.10
56322;DHT22;42227;6.376;-10.782;2024-02-04T13:02:04;32.60;63.50
56322;DHT22;42227;6.376;-10.782;2024-02-04T13:04:35;32.60;59.30
56322;DHT22;42227;6.376;-10.782;2024-02-04T13:07:12;32.50;64.10
56322;DHT22;42227;6.376;-10.782;2024-02-04T13:09:41;32.50;55.10
56322;DHT22;42227;6.376;-10.782;2024-02-04T13:12:10;32.30;40.00
56322;DHT22;42227;6.376;-10.782;2024-02-04T13:14:39;32.20;43.70
56322;DHT22;42227;6.376;-10.782;2024-02-04T13:17:07;32.40;64.20
56322;DHT22;42227;6.376;-10.782;2024-02-04T13:19:37;32.50;58.80
56322;DHT22;42227;6.376;-10.782;2024-02-04T13:22:07;32.30;47.90
56322;DHT22;42227;6.376;-10.782;2024-02-04T13:24:35;32.30;56.50
56322;DHT22;42227;6.376;-10.782;2024-02-04T13:27:05;32.40;55.10
56322;DHT22;42227;6.376;-10.782;2024-02-04T13:29:35;32.40;63.60
56322;DHT22;42227;6.376;-10.782;2024-02-04T13:32:04;32.30;39.00
56322;DHT22;42227;6.376;-10.782;2024-02-04T13:34:33;32.20;39.00
56322;DHT22;42227;6.376;-10.782;2024-02-04T13:37:02;32.20;49.20
56322;DHT22;42227;6.376;-10.782;2024-02-04T13:39:31;32.30;52.40
56322;DHT22;42227;6.376;-10.782;2024-02-04T13:41:59;32.40;57.10
56322;DHT22;42227;6.376;-10.782;2024-02-04T13:44:27;32.40;48.10
56322;DHT22;42227;6.376;-10.782;2024-02-04T13:46:56;32.30;51.90
56322;DHT22;42227;6.376;-10.782;2024-02-04T13:49:24;32.50;56.20
56322;DHT22;42227;6.376;-10.782;2024-02-04T13:51:53;32.30;13.10
56322;DHT22;42227;6.376;-10.782;2024-02-04T13:54:24;32.20;21.70
56322;DHT22;42227;6.376;-10.782;2024-02-04T13:56:52;32.20;44.40
56322;DHT22;42227;6.376;-10.782;2024-02-04T14:02:30;32.30;30.00
56322;DHT22;42227;6.376;-10.782;2024-02-04T14:04:59;32.30;29.00
56322;DHT22;42227;6.376;-10.782;2024-02-04T14:07:28;32.30;35.60
56322;DHT22;42227;6.376;-10.782;2024-02-04T14:09:56;32.40;46.20
56322;DHT22;42227;6.376;-10.782;2024-02-04T14:12:25;32.30;29.40
56322;DHT22;42227;6.376;-10.782;2024-02-04T14:14:53;32.30;36.60
56322;DHT22;42227;6.376;-10.782;2024-02-04T14:17:21;32.20;27.70
56322;DHT22;42227;6.376;-10.782;2024-02-04T14:19:50;32.40;30.30
56322;DHT22;42227;6.376;-10.782;2024-02-04T14:22:18;32.60;22.70
56322;DHT22;42227;6.376;-10.782;2024-02-04T14:24:47;32.60;22.40
56322;DHT22;42227;6.376;-10.782;2024-02-04T14:27:16;32.50;30.60
56322;DHT22;42227;6.376;-10.782;2024-02-04T14:29:44;32.40;26.90
56322;DHT22;42227;6.376;-10.782;2024-02-04T14:32:12;32.40;15.80
56322;DHT22;42227;6.376;-10.782;2024-02-04T14:34:41;32.30;1.00
56322;DHT22;42227;6.376;-10.782;2024-02-04T14:37:09;32.10;14.00
56322;DHT22;42227;6.376;-10.782;2024-02-04T14:39:41;32.10;25.20
56322;DHT22;42227;6.376;-10.782;2024-02-04T14:42:10;32.20;21.60
56322;DHT22;42227;6.376;-10.782;2024-02-04T14:44:38;32.10;17.80
56322;DHT22;42227;6.376;-10.782;2024-02-04T14:47:06;32.20;31.60
56322;DHT22;42227;6.376;-10.782;2024-02-04T14:49:35;32.30;27.90
56322;DHT22;42227;6.376;-10.782;2024-02-04T14:52:04;32.30;27.30
56322;DHT22;42227;6.376;-10.782;2024-02-04T14:54:33;32.40;30.40
56322;DHT22;42227;6.376;-10.782;2024-02-04T14:57:01;32.40;25.00
56322;DHT22;42227;6.376;-10.782;2024-02-04T14:59:30;32.40;28.40
56322;DHT22;42227;6.376;-10.782;2024-02-04T15:01:58;32.50;24.80
56322;DHT22;42227;6.376;-10.782;2024-02-04T15:04:27;32.60;23.60
56322;DHT22;42227;6.376;-10.782;2024-02-04T15:06:55;32.70;21.50
56322;DHT22;42227;6.376;-10.782;2024-02-04T15:09:24;32.50;20.20
56322;DHT22;42227;6.376;-10.782;2024-02-04T15:11:53;32.50;25.30
56322;DHT22;42227;6.376;-10.782;2024-02-04T15:14:22;32.40;19.00
56322;DHT22;42227;6.376;-10.782;2024-02-04T15:16:50;32.20;21.90
56322;DHT22;42227;6.376;-10.782;2024-02-04T15:19:19;32.30;24.90
56322;DHT22;42227;6.376;-10.782;2024-02-04T15:21:48;32.10;3.90
56322;DHT22;42227;6.376;-10.782;2024-02-04T15:24:17;32.10;24.70
56322;DHT22;42227;6.376;-10.782;2024-02-04T15:26:48;32.40;25.60
56322;DHT22;42227;6.376;-10.782;2024-02-04T15:29:18;32.30;22.10
56322;DHT22;42227;6.376;-10.782;2024-02-04T15:31:48;32.40;28.70
56322;DHT22;42227;6.376;-10.782;2024-02-04T15:34:16;32.40;21.20
56322;DHT22;42227;6.376;-10.782;2024-02-04T15:36:45;32.20;13.80
56322;DHT22;42227;6.376;-10.782;2024-02-04T15:39:14;32.00;13.80
56322;DHT22;42227;6.376;-10.782;2024-02-04T15:41:42;31.90;14.90
56322;DHT22;42227;6.376;-10.782;2024-02-04T15:44:11;31.90;23.70
56322;DHT22;42227;6.376;-10.782;2024-02-04T15:46:45;32.00;20.50
56322;DHT22;42227;6.376;-10.782;2024-02-04T15:49:17;31.90;27.90